Time;durP1;ratioP1;P1;durP2;ratioP2;P2;SDS_P1;SDS_P2;PMS_P1;PMS_P2;Temp;Humidity;BMP_temperature;BMP_pressure;BME280_temperature;BME280_humidity;BME280_pressure;Samples;Min_cycle;Max_cycle;Signal;HPM_P1;HPM_P2
2023/07/15 00:01:59;;;;;;;13.70;8.50;;;;;;;16.20;90.90;99083.83;272299;1269;22541;-77
2023/07/15 00:08:03;;;;;;;13.70;9.30;;;;;;;16.09;91.41;99084.98;269785;1269;22543;-78
2023/07/15 00:14:30;;;;;;;14.60;10.10;;;;;;;16.04;91.93;99086.13;270080;1269;23377;-77
2023/07/15 00:20:35;;;;;;;12.40;9.40;;;;;;;15.97;92.52;99079.73;271559;1269;22408;-77
2023/07/15 00:27:20;;;;;;;11.70;8.50;;;;;;;15.85;93.03;99078.18;273733;1269;22381;-76
2023/07/15 00:33:28;;;;;;;10.40;8.30;;;;;;;15.75;93.49;99074.40;273555;1269;22396;-76
2023/07/15 00:39:30;;;;;;;;;;;;;;;15.69;93.67;99076.27;273551;1269;22530;-79
2023/07/15 00:45:31;;;;;;;12.60;9.50;;;;;;;15.59;94.24;99075.02;273537;1269;22221;-77
2023/07/15 00:52:02;;;;;;;13.10;8.60;;;;;;;15.56;94.82;99076.67;273606;1269;23369;-77
2023/07/15 00:58:22;;;;;;;14.50;10.00;;;;;;;15.52;95.21;99073.80;273951;1270;22271;-76
2023/07/15 01:04:23;;;;;;;12.60;9.20;;;;;;;15.46;95.75;99074.39;270237;1254;22193;-76
2023/07/15 01:10:32;;;;;;;14.10;8.40;;;;;;;15.47;96.22;99066.96;269901;1269;25440;-77
2023/07/15 01:16:34;;;;;;;11.60;9.20;;;;;;;15.40;96.34;99059.85;269682;1265;22651;-75
2023/07/15 01:22:36;;;;;;;14.50;9.10;;;;;;;15.29;96.50;99052.89;268543;1269;22683;-77
2023/07/15 01:28:38;;;;;;;13.00;7.70;;;;;;;15.21;96.91;99053.65;270921;1270;22205;-77
2023/07/15 01:34:40;;;;;;;14.40;9.30;;;;;;;15.15;97.33;99054.39;273385;1269;22172;-76
2023/07/15 01:40:43;;;;;;;10.30;7.90;;;;;;;15.09;97.71;99051.68;273544;1269;22420;-77
2023/07/15 01:46:45;;;;;;;14.00;8.10;;;;;;;15.05;98.09;99046.90;273615;1269;22468;-77
2023/07/15 01:52:46;;;;;;;9.30;6.80;;;;;;;15.04;98.70;99050.14;273344;1269;22423;-77
2023/07/15 01:58:48;;;;;;;15.00;7.50;;;;;;;15.08;99.12;99048.38;273559;1269;22469;-77
2023/07/15 02:04:50;;;;;;;11.40;8.90;;;;;;;15.08;99.43;99043.96;273618;1257;22360;-77
2023/07/15 02:11:11;;;;;;;11.50;7.80;;;;;;;15.11;99.75;99042.61;272915;1269;22537;-77
2023/07/15 02:17:20;;;;;;;9.60;7.80;;;;;;;15.08;99.94;99047.44;270087;1269;22588;-77
2023/07/15 02:23:59;;;;;;;10.30;7.50;;;;;;;15.07;100.00;99052.48;273584;1269;22427;-77
2023/07/15 02:30:21;;;;;;;10.20;8.00;;;;;;;15.11;100.00;99061.83;272116;1270;22406;-77
2023/07/15 02:36:22;;;;;;;12.10;7.30;;;;;;;15.18;100.00;99066.91;271563;1269;22551;-76
2023/07/15 02:42:24;;;;;;;11.40;7.80;;;;;;;15.27;100.00;99071.73;271520;1260;22195;-78
2023/07/15 02:48:26;;;;;;;9.70;7.80;;;;;;;15.27;100.00;99072.37;273402;1269;22422;-77
2023/07/15 02:54:28;;;;;;;11.80;7.60;;;;;;;15.24;100.00;99073.48;273470;1264;22450;-77
2023/07/15 03:00:29;;;;;;;11.90;8.50;;;;;;;15.27;100.00;99079.69;273887;1271;22185;-76
2023/07/15 03:06:32;;;;;;;10.00;8.10;;;;;;;15.26;100.00;99078.11;273490;1254;22686;-77
2023/07/15 03:13:11;;;;;;;13.70;8.00;;;;;;;15.22;100.00;99076.42;273206;1260;22473;-76
2023/07/15 03:19:23;;;;;;;11.80;8.10;;;;;;;15.17;100.00;99077.71;273404;1269;22662;-76
2023/07/15 03:25:24;;;;;;;15.50;7.80;;;;;;;15.11;100.00;99076.56;273597;1270;23053;-76
2023/07/15 03:31:26;;;;;;;16.50;7.60;;;;;;;15.07;100.00;99072.64;273475;1269;22369;-76
2023/07/15 03:37:28;;;;;;;11.40;8.50;;;;;;;15.08;100.00;99073.27;273590;1261;22174;-78
2023/07/15 03:43:51;;;;;;;14.60;7.50;;;;;;;15.10;100.00;99075.45;273569;1269;24122;-76
2023/07/15 03:50:04;;;;;;;10.10;8.10;;;;;;;15.17;100.00;99076.21;274092;1272;22171;-76
2023/07/15 03:56:05;;;;;;;10.70;7.90;;;;;;;15.26;100.00;99068.20;273448;1270;22264;-77
2023/07/15 04:02:07;;;;;;;11.30;7.10;;;;;;;15.34;100.00;99069.41;273768;1269;22425;-78
2023/07/15 04:08:09;;;;;;;10.00;8.10;;;;;;;15.46;100.00;99072.58;273679;1257;22259;-77
2023/07/15 04:14:12;;;;;;;11.90;6.90;;;;;;;15.59;100.00;99073.11;273732;1269;22222;-77
2023/07/15 04:20:23;;;;;;;12.00;7.80;;;;;;;15.71;100.00;99077.27;271933;1268;22532;-76
2023/07/15 04:26:26;;;;;;;12.20;7.90;;;;;;;15.86;100.00;99085.19;271549;1266;22834;-77
2023/07/15 04:32:27;;;;;;;9.90;8.60;;;;;;;15.99;100.00;99084.29;270648;1268;22342;-77
2023/07/15 04:38:29;;;;;;;9.30;7.70;;;;;;;16.12;100.00;99084.79;273403;1259;22987;-77
2023/07/15 04:44:31;;;;;;;9.80;7.60;;;;;;;16.26;100.00;99081.73;273498;1269;22260;-77
2023/07/15 04:50:33;;;;;;;9.30;7.70;;;;;;;16.41;100.00;99077.64;273447;1260;23499;-78
2023/07/15 04:56:55;;;;;;;12.70;9.50;;;;;;;16.58;100.00;99081.58;273591;1269;22215;-77
2023/07/15 05:02:57;;;;;;;14.90;9.00;;;;;;;16.76;100.00;99083.88;273471;1269;22378;-77
2023/07/15 05:08:58;;;;;;;14.60;9.60;;;;;;;16.96;100.00;99086.55;273500;1269;22183;-78
2023/07/15 05:15:20;;;;;;;11.80;8.60;;;;;;;17.18;100.00;99088.55;273429;1269;22197;-77
2023/07/15 05:21:22;;;;;;;10.00;7.60;;;;;;;17.39;100.00;99086.75;273218;1260;22206;-77
2023/07/15 05:27:24;;;;;;;15.30;8.90;;;;;;;17.59;100.00;99086.39;273488;1269;22354;-77
2023/07/15 05:33:25;;;;;;;9.70;8.10;;;;;;;17.82;100.00;99089.10;272016;1269;23037;-76
2023/07/15 05:39:47;;;;;;;11.40;7.90;;;;;;;18.10;100.00;99087.27;270713;1259;22272;-78
2023/07/15 05:45:49;;;;;;;13.40;8.50;;;;;;;18.40;100.00;99088.00;273583;1269;23632;-77
2023/07/15 05:51:52;;;;;;;10.20;8.00;;;;;;;18.66;100.00;99083.23;273320;1269;24341;-78
2023/07/15 05:58:14;;;;;;;11.50;7.20;;;;;;;18.90;100.00;99081.39;273471;1269;22189;-77
2023/07/15 06:04:16;;;;;;;11.60;6.60;;;;;;;19.15;100.00;99076.98;273443;1259;22237;-77
2023/07/15 06:10:30;;;;;;;12.50;6.10;;;;;;;19.39;100.00;99076.05;273677;1269;23117;-76
2023/07/15 06:16:32;;;;;;;10.30;6.20;;;;;;;19.67;100.00;99075.31;273468;1269;23367;-78
2023/07/15 06:22:34;;;;;;;9.00;5.50;;;;;;;19.98;100.00;99076.05;273885;1269;23190;-76
2023/07/15 06:28:56;;;;;;;6.20;5.10;;;;;;;20.29;100.00;99077.86;272928;1256;22461;-77
2023/07/15 06:35:06;;;;;;;8.40;5.00;;;;;;;20.70;100.00;99078.33;273490;1269;22545;-77
2023/07/15 06:41:48;;;;;;;6.40;4.60;;;;;;;21.09;100.00;99074.67;271442;1260;22646;-77
2023/07/15 06:48:33;;;;;;;7.00;4.70;;;;;;;21.46;99.97;99078.23;271304;1269;22525;-77
2023/07/15 06:54:35;;;;;;;9.50;4.10;;;;;;;21.89;99.31;99070.17;270292;1266;24246;-76
2023/07/15 07:00:37;;;;;;;5.60;4.10;;;;;;;22.36;99.34;99071.10;270808;1263;22544;-78
2023/07/15 07:06:39;;;;;;;6.20;2.80;;;;;;;23.03;98.23;99071.06;272142;1260;22364;-77
2023/07/15 07:12:41;;;;;;;4.00;2.80;;;;;;;23.84;94.42;99068.39;272555;1269;25343;-77
2023/07/15 07:19:23;;;;;;;3.60;2.40;;;;;;;24.67;91.06;99067.64;270707;1262;22791;-77
2023/07/15 07:25:25;;;;;;;4.10;2.20;;;;;;;25.41;89.11;99065.45;270978;1269;24257;-78
2023/07/15 07:31:31;;;;;;;3.10;2.40;;;;;;;26.08;86.56;99062.15;272384;1266;23520;-77
2023/07/15 07:37:33;;;;;;;4.80;2.50;;;;;;;26.56;83.58;99060.21;272787;1264;22423;-77
2023/07/15 07:43:37;;;;;;;3.90;2.70;;;;;;;26.81;81.37;99057.54;272219;1264;24328;-78
2023/07/15 07:49:41;;;;;;;4.20;2.60;;;;;;;27.07;78.77;99057.71;272682;1269;22115;-78
2023/07/15 07:56:04;;;;;;;2.80;2.50;;;;;;;27.44;77.60;99057.27;272943;1260;22452;-78
2023/07/15 08:02:46;;;;;;;5.40;2.00;;;;;;;27.53;72.43;99059.21;272962;1269;22471;-78
2023/07/15 08:08:49;;;;;;;3.60;2.10;;;;;;;27.66;71.48;99059.23;273278;1269;23095;-78
2023/07/15 08:14:51;;;;;;;2.50;2.00;;;;;;;27.81;69.93;99052.41;273062;1269;22108;-78
2023/07/15 08:20:52;;;;;;;2.60;1.70;;;;;;;27.84;69.06;99051.89;271863;1268;22394;-78
2023/07/15 08:26:54;;;;;;;2.80;2.00;;;;;;;27.89;68.07;99052.49;273202;1268;22276;-79
2023/07/15 08:32:56;;;;;;;5.20;1.90;;;;;;;27.89;65.52;99053.06;272948;1266;22543;-79
2023/07/15 08:38:58;;;;;;;4.50;2.30;;;;;;;27.85;62.43;99047.64;271590;1269;22781;-78
2023/07/15 08:44:59;;;;;;;2.50;1.90;;;;;;;27.82;62.18;99045.68;272731;1268;22255;-78
2023/07/15 08:51:04;;;;;;;2.50;1.80;;;;;;;27.80;62.02;99044.68;272904;1259;22446;-77
2023/07/15 08:57:07;;;;;;;2.20;2.00;;;;;;;27.76;58.80;99046.66;271796;1264;22491;-78
2023/07/15 09:03:08;;;;;;;2.70;1.90;;;;;;;27.84;58.99;99043.77;271983;1261;22207;-78
2023/07/15 09:09:12;;;;;;;2.50;1.90;;;;;;;27.99;58.07;99041.81;273348;1269;22230;-79
2023/07/15 09:15:14;;;;;;;4.50;2.20;;;;;;;28.08;56.34;99032.77;273581;1269;22122;-78
2023/07/15 09:21:36;;;;;;;3.00;2.20;;;;;;;28.20;57.17;99031.08;273944;1264;22211;-78
2023/07/15 09:27:49;;;;;;;3.00;1.90;;;;;;;28.41;55.52;99028.77;272316;1267;22699;-77
2023/07/15 09:33:51;;;;;;;3.40;2.40;;;;;;;28.45;54.41;99020.31;271116;1269;22521;-79
2023/07/15 09:39:55;;;;;;;3.00;1.90;;;;;;;28.47;52.97;99011.34;272105;1269;22509;-78
2023/07/15 09:45:57;;;;;;;4.00;1.70;;;;;;;28.89;52.71;99001.95;271655;1256;22616;-79
2023/07/15 09:52:03;;;;;;;3.20;2.20;;;;;;;29.55;51.53;99001.63;272016;1269;22491;-78
2023/07/15 09:58:09;;;;;;;2.70;1.70;;;;;;;30.06;49.60;99002.92;271554;1269;22403;-79
2023/07/15 10:04:47;;;;;;;;;;;;;;;;;;;;;
2023/07/15 10:11:56;;;;;;;;;;;;;;;;;;;;;
2023/07/15 10:18:35;;;;;;;4.00;2.20;;;;;;;31.52;46.61;98991.98;273476;1257;22437;-79
2023/07/15 10:25:07;;;;;;;2.50;1.80;;;;;;;31.60;45.07;98987.03;273034;1268;22227;-78
2023/07/15 10:32:31;;;;;;;2.60;1.50;;;;;;;31.63;46.61;98982.82;271902;1264;22448;-81
2023/07/15 10:38:34;;;;;;;2.80;1.90;;;;;;;31.97;46.15;98978.25;272184;1268;22791;-79
2023/07/15 10:44:52;;;;;;;1.60;1.50;;;;;;;32.08;45.10;98981.36;273496;1269;22425;-79
2023/07/15 10:51:12;;;;;;;2.80;1.80;;;;;;;31.55;44.31;98979.75;273595;1268;23289;-79
2023/07/15 10:57:15;;;;;;;3.10;1.90;;;;;;;31.47;44.65;98977.20;273359;1269;23400;-78
2023/07/15 11:03:37;;;;;;;2.10;1.60;;;;;;;31.74;44.93;98971.38;271238;1258;22854;-79
2023/07/15 11:09:43;;;;;;;3.00;1.70;;;;;;;32.12;45.42;98966.61;273606;1269;23482;-79
2023/07/15 11:15:46;;;;;;;2.10;1.40;;;;;;;32.36;45.47;98961.05;272532;1260;22521;-77
2023/07/15 11:22:09;;;;;;;2.40;1.90;;;;;;;32.57;44.89;98954.22;269367;1259;22547;-80
2023/07/15 11:28:31;;;;;;;2.20;1.70;;;;;;;32.84;43.76;98944.45;273431;1266;22405;-79
2023/07/15 11:34:35;;;;;;;1.80;1.50;;;;;;;33.00;42.49;98944.30;273638;1264;22472;-79
2023/07/15 11:40:55;;;;;;;2.50;1.60;;;;;;;33.07;40.46;98938.27;273316;1269;22933;-79
2023/07/15 11:47:01;;;;;;;1.70;1.60;;;;;;;32.95;40.14;98932.31;272506;1266;27063;-79
2023/07/15 11:53:03;;;;;;;1.60;1.40;;;;;;;33.15;41.09;98927.55;270244;1268;22520;-78
2023/07/15 11:59:31;;;;;;;1.90;1.70;;;;;;;33.26;40.92;98928.02;271155;1269;22501;-79
2023/07/15 12:05:39;;;;;;;3.70;1.60;;;;;;;33.16;40.11;98921.61;270696;1269;22362;-78
2023/07/15 12:12:22;;;;;;;2.10;1.70;;;;;;;32.98;39.26;98915.91;271214;1268;22447;-79
2023/07/15 12:18:24;;;;;;;3.40;1.80;;;;;;;32.64;37.04;98908.42;273490;1260;22160;-79
2023/07/15 12:24:25;;;;;;;1.90;1.50;;;;;;;32.28;37.30;98903.81;272915;1266;23222;-78
2023/07/15 12:30:47;;;;;;;3.10;1.50;;;;;;;32.16;37.70;98897.35;273468;1269;22295;-78
2023/07/15 12:36:49;;;;;;;3.20;1.60;;;;;;;31.82;38.66;98896.52;273205;1269;22224;-79
2023/07/15 12:43:11;;;;;;;2.30;1.60;;;;;;;31.56;38.91;98892.35;271299;1269;24216;-79
2023/07/15 12:49:12;;;;;;;2.50;1.70;;;;;;;31.37;39.74;98884.42;271305;1269;22194;-79
2023/07/15 12:55:14;;;;;;;5.80;2.10;;;;;;;31.10;39.70;98875.05;271094;1269;22578;-78
2023/07/15 13:01:16;;;;;;;2.60;2.00;;;;;;;30.90;39.29;98875.60;270917;1265;22397;-79
2023/07/15 13:07:19;;;;;;;3.20;2.00;;;;;;;30.86;39.04;98870.11;270868;1269;23250;-79
2023/07/15 13:13:41;;;;;;;2.10;1.80;;;;;;;30.74;39.85;98876.16;272427;1269;22323;-78
2023/07/15 13:19:43;;;;;;;3.20;2.20;;;;;;;30.72;39.05;98874.62;271653;1269;22558;-78
2023/07/15 13:25:45;;;;;;;3.30;1.90;;;;;;;30.68;39.46;98872.23;273427;1269;22806;-80
2023/07/15 13:31:47;;;;;;;2.40;1.90;;;;;;;30.52;40.13;98868.38;273526;1259;22470;-79
2023/07/15 13:37:49;;;;;;;2.20;1.60;;;;;;;30.42;39.56;98868.38;273983;1269;22177;-78
2023/07/15 13:43:51;;;;;;;3.00;2.00;;;;;;;30.33;39.33;98867.81;273255;1268;22642;-80
2023/07/15 13:49:55;;;;;;;1.80;1.50;;;;;;;30.25;39.26;98860.86;273326;1269;22386;-79
2023/07/15 13:56:18;;;;;;;2.10;1.70;;;;;;;30.17;39.97;98857.10;273258;1269;22581;-79
2023/07/15 14:02:20;;;;;;;1.70;1.60;;;;;;;30.12;40.25;98859.64;272946;1268;22219;-79
2023/07/15 14:08:21;;;;;;;1.60;1.40;;;;;;;30.22;39.19;98855.48;273420;1268;22356;-79
2023/07/15 14:14:23;;;;;;;2.20;1.50;;;;;;;30.36;37.88;98854.46;273302;1269;23190;-81
2023/07/15 14:20:36;;;;;;;2.60;1.50;;;;;;;30.42;37.89;98851.64;273330;1259;22382;-78
2023/07/15 14:26:38;;;;;;;3.10;1.50;;;;;;;30.46;37.94;98844.88;273531;1259;22455;-78
2023/07/15 14:32:40;;;;;;;2.50;1.50;;;;;;;30.43;39.34;98843.79;273450;1259;22351;-78
2023/07/15 14:38:46;;;;;;;2.60;2.00;;;;;;;30.22;39.76;98838.06;273474;1269;22474;-79
2023/07/15 14:44:50;;;;;;;;;;;;;;;30.12;39.79;98839.57;273274;1269;22459;-80
2023/07/15 14:50:53;;;;;;;3.90;2.00;;;;;;;30.16;39.89;98836.48;273083;1256;23280;-80
2023/07/15 14:56:55;;;;;;;1.60;1.40;;;;;;;30.07;40.17;98833.91;273108;1261;22517;-80
2023/07/15 15:02:59;;;;;;;3.60;1.80;;;;;;;30.10;39.20;98830.84;271972;1269;23344;-80
2023/07/15 15:09:01;;;;;;;2.90;1.90;;;;;;;30.11;39.33;98829.72;273277;1268;22393;-81
2023/07/15 15:15:03;;;;;;;3.00;1.80;;;;;;;30.04;40.43;98828.47;273309;1266;139622;-82
2023/07/15 15:21:05;;;;;;;3.20;2.00;;;;;;;29.90;40.87;98818.17;273209;1269;22427;-80
2023/07/15 15:27:07;;;;;;;2.30;1.80;;;;;;;29.77;41.33;98809.59;273455;1269;22112;-80
2023/07/15 15:33:09;;;;;;;2.90;1.60;;;;;;;29.74;41.48;98805.68;273450;1265;22389;-79
2023/07/15 15:39:11;;;;;;;3.10;1.90;;;;;;;29.71;41.95;98803.00;273512;1268;22451;-80
2023/07/15 15:45:32;;;;;;;2.50;2.00;;;;;;;29.60;42.74;98799.26;273359;1260;22105;-80
2023/07/15 15:51:35;;;;;;;3.70;2.10;;;;;;;29.53;43.18;98801.99;273532;1259;22186;-80
2023/07/15 15:57:38;;;;;;;1.90;1.70;;;;;;;29.53;42.50;98800.70;273537;1269;23345;-80
2023/07/15 16:03:41;;;;;;;2.40;2.10;;;;;;;29.56;42.28;98796.92;271222;1269;22870;-79
2023/07/15 16:09:43;;;;;;;2.90;1.90;;;;;;;29.48;42.61;98804.69;270364;1256;23686;-79
2023/07/15 16:15:46;;;;;;;2.80;1.80;;;;;;;29.40;42.75;98801.58;269887;1269;22522;-79
2023/07/15 16:21:48;;;;;;;2.30;2.00;;;;;;;29.27;43.16;98799.17;270094;1269;23723;-79
2023/07/15 16:27:50;;;;;;;2.80;1.90;;;;;;;29.14;43.51;98802.34;272451;1268;22406;-80
2023/07/15 16:33:52;;;;;;;3.60;2.70;;;;;;;29.05;43.69;98807.04;273590;1269;22400;-79
2023/07/15 16:39:53;;;;;;;2.90;2.30;;;;;;;29.01;43.72;98804.85;273474;1268;22356;-80
2023/07/15 16:45:55;;;;;;;4.00;1.90;;;;;;;28.96;43.82;98807.55;273556;1269;22153;-80
2023/07/15 16:51:57;;;;;;;3.40;1.90;;;;;;;28.90;43.89;98808.73;272812;1269;22577;-79
2023/07/15 16:57:59;;;;;;;3.40;2.00;;;;;;;28.87;43.92;98806.86;271383;1269;22633;-79
2023/07/15 17:04:01;;;;;;;4.00;2.10;;;;;;;28.90;43.51;98809.30;271171;1259;22186;-79
2023/07/15 17:10:03;;;;;;;2.50;2.10;;;;;;;28.95;43.38;98803.70;272069;1269;23829;-79
2023/07/15 17:16:04;;;;;;;3.10;1.80;;;;;;;28.87;43.20;98803.02;272239;1269;22565;-80
2023/07/15 17:22:06;;;;;;;2.70;2.10;;;;;;;28.85;43.28;98802.21;272184;1269;22412;-81
2023/07/15 17:28:08;;;;;;;3.10;2.40;;;;;;;28.69;43.98;98797.70;273518;1269;23651;-81
2023/07/15 17:34:11;;;;;;;3.70;2.50;;;;;;;28.52;44.32;98793.30;265336;1267;10001552;-79
2023/07/15 17:40:14;;;;;;;3.40;2.60;;;;;;;28.36;44.96;98800.27;273495;1269;22930;-79
2023/07/15 17:46:20;;;;;;;4.20;2.90;;;;;;;28.21;45.86;98799.85;273544;1269;22190;-79
2023/07/15 17:52:21;;;;;;;5.10;2.30;;;;;;;28.04;46.87;98800.24;273371;1268;23466;-79
2023/07/15 17:58:39;;;;;;;3.50;3.00;;;;;;;27.84;47.74;98802.03;273384;1269;23785;-79
2023/07/15 18:04:48;;;;;;;3.60;2.60;;;;;;;27.61;48.99;98798.75;273367;1269;22385;-79
2023/07/15 18:10:50;;;;;;;5.90;3.80;;;;;;;27.40;50.51;98799.57;273410;1259;22211;-79
2023/07/15 18:16:52;;;;;;;7.10;4.20;;;;;;;27.21;52.27;98795.85;273249;1266;22431;-79
2023/07/15 18:22:54;;;;;;;6.20;3.60;;;;;;;27.08;53.66;98794.80;273081;1269;22453;-79
2023/07/15 18:28:55;;;;;;;5.80;4.20;;;;;;;26.88;54.85;98803.30;273386;1265;22952;-79
2023/07/15 18:34:58;;;;;;;6.40;4.10;;;;;;;26.68;55.99;98812.86;273341;1267;22426;-79
2023/07/15 18:41:01;;;;;;;5.70;4.00;;;;;;;26.46;56.87;98819.12;273125;1263;22362;-79
2023/07/15 18:47:03;;;;;;;7.90;4.90;;;;;;;26.25;58.36;98822.17;273192;1258;22358;-78
2023/07/15 18:53:05;;;;;;;6.40;4.70;;;;;;;26.03;58.85;98824.23;273200;1269;22398;-79
2023/07/15 18:59:08;;;;;;;7.50;5.70;;;;;;;25.78;59.62;98827.45;273304;1269;23545;-79
2023/07/15 19:05:22;;;;;;;7.20;5.70;;;;;;;25.54;59.94;98821.36;273401;1269;22209;-78
2023/07/15 19:11:27;;;;;;;6.30;5.50;;;;;;;25.31;60.06;98822.49;273334;1269;22148;-79
2023/07/15 19:17:29;;;;;;;7.40;5.40;;;;;;;25.13;60.53;98827.48;273346;1257;22308;-79
2023/07/15 19:23:34;;;;;;;5.90;4.10;;;;;;;24.96;62.35;98830.48;273202;1268;22368;-79
2023/07/15 19:29:36;;;;;;;7.40;4.90;;;;;;;24.73;63.41;98829.47;273333;1269;22435;-79
2023/07/15 19:35:38;;;;;;;6.20;4.40;;;;;;;24.48;62.84;98831.12;273068;1268;22322;-80
2023/07/15 19:41:40;;;;;;;6.60;5.10;;;;;;;24.26;63.58;98836.20;273682;1269;22205;-78
2023/07/15 19:47:42;;;;;;;6.00;5.20;;;;;;;24.03;64.75;98842.77;273316;1269;22212;-79
2023/07/15 19:53:44;;;;;;;10.10;4.60;;;;;;;23.83;67.17;98849.73;273770;1269;22162;-78
2023/07/15 19:59:46;;;;;;;7.20;5.70;;;;;;;23.61;68.40;98851.10;273209;1269;22439;-78
2023/07/15 20:05:48;;;;;;;8.20;6.10;;;;;;;23.36;68.84;98845.89;273364;1269;23453;-79
2023/07/15 20:11:50;;;;;;;9.10;6.20;;;;;;;23.11;69.56;98848.41;273397;1257;22334;-78
2023/07/15 20:17:52;;;;;;;10.20;6.60;;;;;;;22.91;70.11;98850.92;273230;1269;22360;-78
2023/07/15 20:23:54;;;;;;;8.80;7.30;;;;;;;22.67;71.56;98852.09;273396;1268;23895;-79
2023/07/15 20:29:57;;;;;;;13.20;8.60;;;;;;;22.57;72.41;98850.88;273630;1269;22282;-78
2023/07/15 20:35:59;;;;;;;20.80;18.10;;;;;;;22.36;73.39;98853.98;273693;1269;22393;-79
2023/07/15 20:42:01;;;;;;;16.80;14.50;;;;;;;22.17;74.28;98855.33;274025;1270;22178;-78
2023/07/15 20:48:02;;;;;;;17.20;10.60;;;;;;;22.01;74.80;98858.11;273635;1253;22878;-80
2023/07/15 20:54:06;;;;;;;19.80;9.20;;;;;;;21.83;75.39;98856.93;273617;1269;24244;-78
2023/07/15 21:00:09;;;;;;;16.50;9.00;;;;;;;21.69;76.19;98857.10;273522;1268;22249;-78
2023/07/15 21:06:10;;;;;;;15.60;8.30;;;;;;;21.60;77.44;98861.71;273167;1269;22520;-78
2023/07/15 21:12:12;;;;;;;15.90;9.20;;;;;;;21.50;78.13;98852.45;272411;1258;22263;-78
2023/07/15 21:18:18;;;;;;;10.60;8.00;;;;;;;21.35;78.52;98855.44;274104;1258;22194;-78
2023/07/15 21:24:20;;;;;;;11.40;7.90;;;;;;;21.28;79.40;98852.90;272787;1269;23569;-78
2023/07/15 21:30:21;;;;;;;12.50;7.50;;;;;;;21.15;80.33;98854.70;273069;1269;22307;-78
2023/07/15 21:36:28;;;;;;;13.60;8.80;;;;;;;21.03;81.11;98861.45;273915;1269;22203;-78
2023/07/15 21:42:30;;;;;;;15.90;8.80;;;;;;;20.95;81.37;98858.36;273647;1269;22379;-78
2023/07/15 21:48:31;;;;;;;11.60;7.90;;;;;;;20.81;81.87;98860.70;273619;1269;22174;-80
2023/07/15 21:54:33;;;;;;;12.00;8.30;;;;;;;20.57;82.28;98861.08;273674;1267;23588;-78
2023/07/15 22:00:35;;;;;;;14.20;8.40;;;;;;;20.42;83.20;98864.56;273428;1269;22187;-78
2023/07/15 22:06:46;;;;;;;12.00;8.20;;;;;;;20.32;84.01;98870.45;273509;1264;23736;-78
2023/07/15 22:12:47;;;;;;;14.50;8.80;;;;;;;20.22;85.12;98869.55;273460;1269;22174;-79
2023/07/15 22:18:49;;;;;;;19.70;9.80;;;;;;;20.18;85.44;98869.58;270958;1269;22547;-77
2023/07/15 22:24:51;;;;;;;15.10;8.90;;;;;;;20.12;85.99;98877.45;271093;1257;22555;-77
2023/07/15 22:30:52;;;;;;;16.70;8.80;;;;;;;19.89;86.21;98879.34;269869;1269;22577;-77
2023/07/15 22:36:54;;;;;;;12.20;8.60;;;;;;;19.76;87.46;98879.48;270789;1259;22577;-78
2023/07/15 22:42:56;;;;;;;13.80;8.60;;;;;;;19.71;88.27;98877.56;271402;1256;22493;-78
2023/07/15 22:48:58;;;;;;;14.40;8.80;;;;;;;19.68;88.44;98877.17;272533;1268;23539;-78
2023/07/15 22:55:00;;;;;;;13.10;9.00;;;;;;;19.56;88.89;98881.93;270763;1268;23309;-78
2023/07/15 23:01:10;;;;;;;14.80;9.70;;;;;;;19.42;89.15;98884.94;271134;1256;22454;-80
2023/07/15 23:07:13;;;;;;;14.30;8.90;;;;;;;19.25;89.63;98878.04;273391;1269;22368;-78
2023/07/15 23:13:15;;;;;;;14.40;9.00;;;;;;;19.13;90.11;98870.73;273681;1269;22187;-78
2023/07/15 23:19:16;;;;;;;13.80;8.10;;;;;;;19.09;91.06;98868.45;273577;1257;23064;-78
2023/07/15 23:25:18;;;;;;;11.50;7.40;;;;;;;19.05;91.44;98859.63;273653;1253;22372;-80
2023/07/15 23:31:20;;;;;;;11.00;8.30;;;;;;;18.96;91.86;98861.95;273666;1268;22286;-78
2023/07/15 23:37:22;;;;;;;11.50;8.40;;;;;;;18.85;92.13;98862.33;273644;1268;23187;-78
2023/07/15 23:43:23;;;;;;;15.00;9.20;;;;;;;18.72;92.50;98848.92;273743;1269;22380;-78
2023/07/15 23:49:25;;;;;;;19.80;9.30;;;;;;;18.61;93.04;98840.08;273649;1268;22380;-78
2023/07/15 23:55:26;;;;;;;12.60;8.50;;;;;;;18.48;93.51;98838.08;273092;1257;22556;-81
